createdAt,value
2022-10-30T00:01:41.919Z,4.35
2022-10-30T00:04:13.410Z,12.68
2022-10-30T00:06:43.677Z,6.53
2022-10-30T00:09:13.917Z,9.73
2022-10-30T00:11:44.726Z,6.32
2022-10-30T00:14:15.403Z,12.27
2022-10-30T00:16:45.700Z,4.93
2022-10-30T00:19:17.365Z,6.53
2022-10-30T00:21:47.818Z,7.50
2022-10-30T00:24:17.887Z,7.80
2022-10-30T00:26:48.527Z,24.33
2022-10-30T00:29:18.966Z,6.88
2022-10-30T00:31:50.217Z,6.82
2022-10-30T00:34:22.049Z,4.57
2022-10-30T00:36:52.449Z,6.22
2022-10-30T00:39:22.540Z,6.10
2022-10-30T00:41:52.568Z,7.70
2022-10-30T00:44:40.048Z,6.25
2022-10-30T00:47:16.628Z,7.97
2022-10-30T00:49:55.448Z,5.28
2022-10-30T00:52:28.336Z,8.98
2022-10-30T00:55:03.588Z,8.15
2022-10-30T00:57:34.197Z,7.82
2022-10-30T01:00:06.602Z,13.10
2022-10-30T01:02:37.207Z,10.25
2022-10-30T01:07:46.169Z,8.23
2022-10-30T01:10:17.445Z,9.40
2022-10-30T01:12:49.507Z,7.65
2022-10-30T01:15:22.010Z,4.88
2022-10-30T01:18:12.460Z,9.27
2022-10-30T01:21:17.082Z,7.38
2022-10-30T01:24:03.451Z,10.10
2022-10-30T01:26:43.229Z,8.75
2022-10-30T01:29:27.611Z,11.18
2022-10-30T01:32:16.950Z,6.75
2022-10-30T01:34:57.097Z,5.65
2022-10-30T01:37:35.319Z,5.03
2022-10-30T01:40:13.449Z,6.68
2022-10-30T01:42:50.708Z,7.47
2022-10-30T01:45:46.245Z,4.32
2022-10-30T01:48:32.217Z,7.22
2022-10-30T01:51:13.359Z,7.10
2022-10-30T01:53:54.368Z,10.13
2022-10-30T01:56:38.049Z,8.87
2022-10-30T01:59:17.019Z,12.95
2022-10-30T02:01:48.019Z,11.48
2022-10-30T02:04:19.059Z,12.48
2022-10-30T02:06:49.769Z,7.82
2022-10-30T02:09:20.587Z,6.30
2022-10-30T02:11:55.588Z,12.23
2022-10-30T02:14:31.699Z,5.85
2022-10-30T02:17:04.933Z,8.45
2022-10-30T02:19:35.239Z,13.13
2022-10-30T02:22:07.688Z,8.63
2022-10-30T02:24:37.981Z,10.82
2022-10-30T02:27:10.145Z,7.60
2022-10-30T02:29:43.778Z,11.48
2022-10-30T02:32:14.108Z,8.70
2022-10-30T02:34:45.019Z,9.57
2022-10-30T02:37:18.317Z,7.45
2022-10-30T02:39:48.738Z,12.32
2022-10-30T02:42:19.246Z,9.73
2022-10-30T02:44:49.689Z,13.30
2022-10-30T02:47:21.120Z,13.15
2022-10-30T02:49:51.428Z,11.35
2022-10-30T02:52:23.062Z,11.55
2022-10-30T02:54:53.329Z,13.45
2022-10-30T02:57:23.449Z,12.10
2022-10-30T02:59:53.598Z,7.50
2022-10-30T03:02:24.491Z,12.38
2022-10-30T03:04:54.487Z,11.68
2022-10-30T03:07:25.885Z,10.63
2022-10-30T03:09:56.169Z,6.60
2022-10-30T03:12:26.218Z,7.45
2022-10-30T03:14:56.229Z,10.95
2022-10-30T03:17:26.615Z,7.43
2022-10-30T03:19:56.740Z,6.25
2022-10-30T03:22:28.457Z,6.78
2022-10-30T03:24:58.407Z,5.88
2022-10-30T03:27:28.810Z,8.15
2022-10-30T03:29:58.910Z,9.43
2022-10-30T03:32:29.270Z,7.57
2022-10-30T03:34:59.400Z,7.97
2022-10-30T03:37:30.837Z,10.05
2022-10-30T03:40:01.028Z,8.20
2022-10-30T03:42:31.058Z,11.23
2022-10-30T03:45:01.339Z,7.05
2022-10-30T03:47:33.679Z,7.68
2022-10-30T03:50:03.639Z,5.82
2022-10-30T03:52:36.350Z,8.35
2022-10-30T03:57:39.529Z,7.82
2022-10-30T04:00:27.897Z,7.55
2022-10-30T04:03:01.758Z,7.53
2022-10-30T04:05:34.229Z,10.00
2022-10-30T04:08:12.500Z,5.60
2022-10-30T04:10:45.436Z,9.40
2022-10-30T04:13:17.880Z,10.55
2022-10-30T04:15:55.985Z,10.43
2022-10-30T04:18:27.917Z,10.90
2022-10-30T04:21:00.604Z,8.95
2022-10-30T04:23:32.568Z,6.63
2022-10-30T04:26:03.708Z,8.00
2022-10-30T04:28:34.120Z,8.60
2022-10-30T04:31:04.358Z,5.63
2022-10-30T04:33:35.968Z,7.63
2022-10-30T04:36:06.361Z,8.55
2022-10-30T04:38:37.959Z,7.70
2022-10-30T04:41:10.249Z,6.95
2022-10-30T04:43:51.712Z,9.15
2022-10-30T04:46:22.058Z,6.35
2022-10-30T04:48:52.700Z,8.25
2022-10-30T04:51:23.228Z,7.70
2022-10-30T04:53:55.567Z,6.30
2022-10-30T04:56:26.259Z,7.80
2022-10-30T04:58:56.319Z,8.65
2022-10-30T05:01:26.371Z,7.47
2022-10-30T05:03:59.358Z,7.45
2022-10-30T05:06:32.765Z,7.43
2022-10-30T05:09:04.769Z,8.20
2022-10-30T05:11:40.548Z,8.70
2022-10-30T05:14:11.693Z,5.95
2022-10-30T05:16:41.838Z,9.02
2022-10-30T05:19:12.271Z,11.70
2022-10-30T05:21:47.176Z,10.57
2022-10-30T05:24:19.485Z,9.70
2022-10-30T05:26:49.876Z,14.10
2022-10-30T05:29:20.696Z,9.07
2022-10-30T05:31:50.673Z,9.43
2022-10-30T05:34:20.917Z,11.73
2022-10-30T05:36:55.011Z,11.27
2022-10-30T05:39:27.183Z,7.25
2022-10-30T05:44:58.606Z,9.85
2022-10-30T05:47:23.612Z,10.85
2022-10-30T05:49:57.407Z,15.30
2022-10-30T05:52:30.213Z,14.00
2022-10-30T05:55:03.995Z,20.30
2022-10-30T05:58:03.198Z,18.08
2022-10-30T06:00:36.736Z,17.10
2022-10-30T06:03:08.791Z,21.30
2022-10-30T06:05:40.257Z,16.27
2022-10-30T06:08:11.004Z,17.42
2022-10-30T06:10:43.581Z,14.13
2022-10-30T06:13:18.531Z,20.63
2022-10-30T06:16:02.626Z,34.17
2022-10-30T06:18:53.085Z,43.85
2022-10-30T06:21:23.501Z,37.70
2022-10-30T06:24:31.673Z,24.17
2022-10-30T06:27:12.563Z,19.52
2022-10-30T06:29:42.803Z,13.25
2022-10-30T06:32:13.502Z,19.23
2022-10-30T06:34:45.842Z,16.92
2022-10-30T06:37:18.140Z,16.35
2022-10-30T06:39:49.078Z,15.68
2022-10-30T06:42:46.302Z,12.55
2022-10-30T06:45:32.125Z,11.85
2022-10-30T06:48:03.420Z,8.98
2022-10-30T06:50:38.693Z,12.80
2022-10-30T06:53:10.620Z,13.23
2022-10-30T06:55:41.303Z,11.75
2022-10-30T06:58:42.083Z,8.85
2022-10-30T07:04:27.713Z,12.13
2022-10-30T07:07:01.681Z,9.50
2022-10-30T07:09:33.862Z,10.93
2022-10-30T07:12:06.963Z,11.20
2022-10-30T07:14:54.425Z,10.63
2022-10-30T07:17:43.595Z,10.27
2022-10-30T07:20:24.705Z,9.93
2022-10-30T07:22:54.984Z,11.98
2022-10-30T07:25:25.613Z,12.27
2022-10-30T07:28:04.614Z,11.85
2022-10-30T07:30:43.468Z,14.77
2022-10-30T07:33:27.586Z,11.10
2022-10-30T07:36:03.472Z,11.75
2022-10-30T07:38:54.022Z,14.27
2022-10-30T07:41:38.203Z,13.85
2022-10-30T07:44:27.052Z,9.82
2022-10-30T07:47:18.984Z,11.43
2022-10-30T07:53:18.866Z,11.70
2022-10-30T07:55:51.434Z,16.50
2022-10-30T07:58:44.357Z,11.80
2022-10-30T08:01:36.755Z,13.45
2022-10-30T08:04:25.792Z,12.90
2022-10-30T08:07:06.223Z,18.90
2022-10-30T08:09:38.000Z,12.73
2022-10-30T08:12:09.020Z,15.63
2022-10-30T08:14:40.635Z,14.52
2022-10-30T08:17:10.981Z,12.95
2022-10-30T08:19:44.737Z,14.13
2022-10-30T08:22:15.232Z,12.30
2022-10-30T08:24:49.973Z,13.05
2022-10-30T08:27:20.245Z,10.35
2022-10-30T08:29:50.934Z,12.68
2022-10-30T08:32:21.232Z,13.67
2022-10-30T08:35:22.880Z,8.50
2022-10-30T08:37:56.947Z,8.57
2022-10-30T08:40:30.355Z,9.88
2022-10-30T08:43:07.550Z,7.95
2022-10-30T08:45:38.183Z,9.07
2022-10-30T08:48:20.235Z,6.95
2022-10-30T08:50:52.894Z,6.93
2022-10-30T08:53:30.909Z,8.48
2022-10-30T08:58:46.124Z,10.90
2022-10-30T09:01:17.592Z,6.75
2022-10-30T09:04:20.100Z,6.30
2022-10-30T09:07:27.373Z,9.32
2022-10-30T09:10:17.173Z,6.80
2022-10-30T09:12:49.643Z,8.95
2022-10-30T09:15:21.001Z,11.23
2022-10-30T09:17:59.406Z,8.18
2022-10-30T09:20:31.678Z,6.07
2022-10-30T09:23:04.432Z,8.77
2022-10-30T09:25:34.792Z,8.23
2022-10-30T09:28:31.313Z,8.95
2022-10-30T09:31:21.382Z,5.38
2022-10-30T09:33:51.943Z,6.80
2022-10-30T09:36:46.594Z,6.68
2022-10-30T09:39:19.342Z,8.00
2022-10-30T09:42:17.401Z,8.35
2022-10-30T09:45:27.946Z,12.25
2022-10-30T09:48:06.199Z,8.45
2022-10-30T09:50:58.122Z,8.85
2022-10-30T09:53:35.583Z,9.15
2022-10-30T09:56:21.012Z,12.63
2022-10-30T09:59:05.892Z,7.40
2022-10-30T10:01:44.089Z,7.07
2022-10-30T10:04:27.261Z,11.75
2022-10-30T10:10:02.146Z,7.40
2022-10-30T10:12:55.963Z,5.88
2022-10-30T10:15:43.375Z,5.82
2022-10-30T10:18:28.055Z,7.45
2022-10-30T10:21:03.854Z,9.52
2022-10-30T10:23:41.174Z,6.28
2022-10-30T10:26:20.353Z,7.20
2022-10-30T10:29:03.614Z,9.40
2022-10-30T10:31:45.293Z,8.10
2022-10-30T10:34:44.684Z,6.78
2022-10-30T10:37:27.889Z,9.18
2022-10-30T10:40:20.866Z,5.40
2022-10-30T10:43:04.925Z,9.02
2022-10-30T10:45:48.747Z,7.40
2022-10-30T10:48:53.377Z,6.80
2022-10-30T10:51:27.138Z,8.25
2022-10-30T10:54:02.716Z,5.63
2022-10-30T10:56:36.386Z,7.07
2022-10-30T10:59:14.285Z,9.27
2022-10-30T11:01:53.824Z,6.85
2022-10-30T11:04:33.886Z,7.30
2022-10-30T11:07:15.232Z,6.20
2022-10-30T11:09:46.493Z,7.65
2022-10-30T11:12:16.845Z,7.35
2022-10-30T11:14:47.263Z,7.95
2022-10-30T11:17:26.716Z,8.13
2022-10-30T11:20:04.913Z,18.80
2022-10-30T11:22:40.034Z,7.60
2022-10-30T11:25:27.010Z,10.75
2022-10-30T11:28:04.732Z,9.02
2022-10-30T11:30:35.399Z,12.45
2022-10-30T11:33:24.409Z,9.43
2022-10-30T11:35:54.660Z,9.23
2022-10-30T11:38:28.387Z,8.40
2022-10-30T11:40:58.779Z,8.45
2022-10-30T11:43:29.328Z,6.93
2022-10-30T11:46:00.136Z,7.57
2022-10-30T11:48:34.988Z,7.97
2022-10-30T11:51:06.355Z,7.18
2022-10-30T11:53:40.304Z,7.93
2022-10-30T11:56:20.483Z,8.05
2022-10-30T11:58:54.023Z,6.13
2022-10-30T12:01:26.411Z,10.70
2022-10-30T12:04:14.502Z,12.02
2022-10-30T12:06:44.733Z,7.68
2022-10-30T12:09:21.503Z,10.93
2022-10-30T12:11:52.086Z,17.50
2022-10-30T12:14:24.483Z,9.32
2022-10-30T12:16:57.383Z,7.88
2022-10-30T12:19:30.984Z,21.10
2022-10-30T12:22:05.347Z,11.55
2022-10-30T12:24:41.476Z,12.82
2022-10-30T12:27:21.543Z,12.95
2022-10-30T12:32:48.124Z,10.35
2022-10-30T12:35:42.453Z,10.43
2022-10-30T12:38:19.981Z,8.05
2022-10-30T12:41:07.523Z,8.23
2022-10-30T12:43:38.267Z,8.68
2022-10-30T12:46:31.077Z,10.45
2022-10-30T12:49:09.876Z,12.65
2022-10-30T12:51:50.915Z,10.57
2022-10-30T12:54:31.949Z,9.85
2022-10-30T12:57:10.136Z,9.27
2022-10-30T12:59:48.565Z,8.50
2022-10-30T13:02:30.704Z,8.77
2022-10-30T13:05:05.825Z,7.55
2022-10-30T13:07:43.518Z,8.38
2022-10-30T13:10:28.545Z,10.00
2022-10-30T13:13:05.859Z,11.73
2022-10-30T13:15:40.735Z,14.30
2022-10-30T13:18:18.730Z,11.10
2022-10-30T13:21:00.210Z,8.57
2022-10-30T13:23:38.866Z,12.05
2022-10-30T13:26:21.056Z,14.70
2022-10-30T13:29:00.204Z,7.47
2022-10-30T13:31:39.836Z,10.63
2022-10-30T13:34:25.585Z,11.02
2022-10-30T13:37:03.482Z,12.70
2022-10-30T13:39:43.602Z,12.27
2022-10-30T13:42:35.671Z,9.68
2022-10-30T13:45:24.482Z,8.27
2022-10-30T13:48:09.010Z,9.05
2022-10-30T13:50:55.698Z,7.63
2022-10-30T13:53:30.534Z,7.10
2022-10-30T13:56:02.614Z,7.75
2022-10-30T13:58:38.372Z,7.60
2022-10-30T14:01:17.007Z,9.15
2022-10-30T14:03:57.301Z,8.82
2022-10-30T14:06:38.542Z,20.60
2022-10-30T14:09:19.308Z,8.18
2022-10-30T14:11:51.241Z,8.07
2022-10-30T14:14:31.243Z,8.75
2022-10-30T14:17:23.726Z,7.72
2022-10-30T14:20:24.072Z,8.10
2022-10-30T14:23:10.392Z,11.88
2022-10-30T14:25:41.722Z,10.50
2022-10-30T14:28:25.653Z,8.80
2022-10-30T14:31:04.667Z,9.70
2022-10-30T14:33:49.406Z,9.27
2022-10-30T14:36:22.763Z,10.38
2022-10-30T14:39:01.093Z,10.48
2022-10-30T14:41:55.594Z,9.18
2022-10-30T14:45:10.452Z,13.07
2022-10-30T14:48:01.722Z,8.93
2022-10-30T14:50:58.807Z,10.10
2022-10-30T14:53:42.057Z,12.48
2022-10-30T14:56:29.520Z,12.93
2022-10-30T14:59:33.693Z,12.13
2022-10-30T15:02:25.489Z,19.17
2022-10-30T15:07:48.074Z,10.00
2022-10-30T15:10:28.461Z,15.48
2022-10-30T15:15:39.934Z,12.98
2022-10-30T15:18:17.661Z,13.43
2022-10-30T15:20:53.654Z,11.57
2022-10-30T15:23:29.759Z,16.75
2022-10-30T15:26:08.956Z,14.82
2022-10-30T15:28:42.074Z,16.60
2022-10-30T15:31:25.024Z,19.20
2022-10-30T15:33:58.482Z,20.02
2022-10-30T15:36:30.914Z,23.23
2022-10-30T15:39:11.641Z,23.27
2022-10-30T15:41:47.583Z,20.75
2022-10-30T15:44:22.592Z,21.48
2022-10-30T15:46:54.569Z,19.05
2022-10-30T15:49:34.896Z,17.23
2022-10-30T15:52:15.245Z,19.00
2022-10-30T15:54:48.815Z,20.48
2022-10-30T16:00:23.857Z,18.25
2022-10-30T16:03:03.780Z,18.50
2022-10-30T16:05:40.621Z,18.33
2022-10-30T16:08:16.664Z,14.60
2022-10-30T16:10:47.115Z,19.63
2022-10-30T16:13:20.553Z,20.52
2022-10-30T16:15:51.445Z,24.48
2022-10-30T16:18:24.774Z,28.17
2022-10-30T16:20:58.787Z,35.08
2022-10-30T16:23:28.912Z,27.70
2022-10-30T16:26:00.803Z,30.50
2022-10-30T16:31:05.015Z,28.42
2022-10-30T16:33:37.565Z,28.88
2022-10-30T16:36:15.214Z,26.15
2022-10-30T16:38:47.875Z,28.15
2022-10-30T16:41:25.742Z,28.52
2022-10-30T16:44:21.834Z,23.40
2022-10-30T16:46:55.183Z,28.13
2022-10-30T16:49:36.043Z,25.67
2022-10-30T16:52:29.116Z,29.00
2022-10-30T16:55:04.618Z,33.83
2022-10-30T16:57:44.567Z,27.20
2022-10-30T17:00:27.153Z,23.25
2022-10-30T17:03:00.953Z,30.40
2022-10-30T17:05:34.110Z,33.55
2022-10-30T17:08:09.463Z,32.08
2022-10-30T17:10:44.980Z,33.70
2022-10-30T17:13:35.964Z,48.78
2022-10-30T17:16:26.023Z,66.55
2022-10-30T17:18:57.223Z,49.20
2022-10-30T17:21:31.223Z,59.55
2022-10-30T17:24:03.322Z,59.33
2022-10-30T17:26:40.584Z,64.80
2022-10-30T17:29:52.065Z,74.50
2022-10-30T17:32:25.048Z,64.28
2022-10-30T17:35:00.864Z,75.45
2022-10-30T17:37:34.303Z,69.47
2022-10-30T17:40:06.567Z,69.15
2022-10-30T17:42:36.964Z,74.63
2022-10-30T17:45:10.698Z,69.68
2022-10-30T17:47:40.893Z,71.13
2022-10-30T17:50:11.677Z,65.40
2022-10-30T17:52:42.153Z,72.95
2022-10-30T17:55:25.038Z,62.88
2022-10-30T17:57:57.983Z,63.47
2022-10-30T18:00:28.112Z,57.00
2022-10-30T18:02:58.705Z,59.95
2022-10-30T18:05:37.842Z,64.50
2022-10-30T18:08:08.387Z,51.72
2022-10-30T18:10:39.825Z,60.50
2022-10-30T18:13:13.534Z,65.85
2022-10-30T18:15:47.092Z,56.72
2022-10-30T18:18:17.473Z,57.30
2022-10-30T18:20:47.394Z,58.83
2022-10-30T18:23:50.339Z,52.88
2022-10-30T18:26:17.948Z,58.08
2022-10-30T18:28:48.591Z,55.45
2022-10-30T18:31:20.856Z,57.08
2022-10-30T18:33:51.597Z,50.58
2022-10-30T18:36:24.406Z,54.87
2022-10-30T18:38:56.464Z,55.30
2022-10-30T18:41:34.338Z,55.33
2022-10-30T18:44:11.322Z,53.10
2022-10-30T18:46:41.422Z,56.15
2022-10-30T18:49:11.994Z,57.35
2022-10-30T18:51:43.586Z,62.88
2022-10-30T18:54:17.394Z,57.05
2022-10-30T18:56:49.249Z,61.10
2022-10-30T18:59:19.514Z,57.22
2022-10-30T19:01:50.216Z,45.05
2022-10-30T19:06:52.982Z,44.63
2022-10-30T19:09:23.256Z,46.60
2022-10-30T19:11:55.131Z,46.40
2022-10-30T19:14:26.044Z,50.95
2022-10-30T19:16:55.960Z,44.33
2022-10-30T19:19:26.242Z,48.67
2022-10-30T19:21:56.043Z,44.78
2022-10-30T19:24:26.113Z,38.55
2022-10-30T19:26:58.090Z,38.85
2022-10-30T19:29:29.232Z,35.15
2022-10-30T19:31:59.754Z,39.85
2022-10-30T19:34:36.579Z,34.15
2022-10-30T19:37:07.624Z,34.05
2022-10-30T19:39:37.604Z,36.77
2022-10-30T19:42:10.581Z,30.88
2022-10-30T19:44:41.071Z,32.95
2022-10-30T19:47:12.072Z,39.17
2022-10-30T19:49:42.302Z,41.20
2022-10-30T19:52:12.554Z,33.53
2022-10-30T19:54:42.764Z,35.17
2022-10-30T19:57:15.952Z,36.97
2022-10-30T19:59:46.313Z,44.08
2022-10-30T20:02:16.690Z,32.13
2022-10-30T20:04:46.774Z,37.10
2022-10-30T20:07:17.771Z,35.55
2022-10-30T20:09:47.955Z,48.33
2022-10-30T20:12:19.630Z,40.05
2022-10-30T20:14:49.751Z,38.08
2022-10-30T20:17:20.072Z,42.08
2022-10-30T20:19:50.142Z,45.00
2022-10-30T20:22:23.249Z,41.78
2022-10-30T20:24:57.524Z,37.85
2022-10-30T20:27:29.045Z,41.65
2022-10-30T20:29:59.565Z,41.75
2022-10-30T20:32:29.945Z,39.35
2022-10-30T20:35:00.348Z,45.90
2022-10-30T20:37:30.412Z,44.40
2022-10-30T20:40:00.986Z,37.28
2022-10-30T20:42:36.973Z,36.03
2022-10-30T20:45:09.682Z,35.20
2022-10-30T20:50:10.836Z,37.20
2022-10-30T20:52:41.393Z,34.40
2022-10-30T20:55:13.213Z,33.67
2022-10-30T20:57:46.019Z,35.35
2022-10-30T21:00:17.412Z,35.33
2022-10-30T21:05:42.103Z,27.42
2022-10-30T21:08:08.873Z,36.97
2022-10-30T21:10:40.213Z,36.83
2022-10-30T21:13:13.205Z,35.10
2022-10-30T21:15:44.873Z,38.90
2022-10-30T21:18:15.683Z,40.47
2022-10-30T21:20:45.681Z,37.05
2022-10-30T21:23:16.806Z,43.53
2022-10-30T21:25:46.863Z,38.20
2022-10-30T21:28:18.741Z,34.97
2022-10-30T21:33:18.767Z,44.38
2022-10-30T21:35:48.727Z,38.53
2022-10-30T21:38:18.872Z,38.45
2022-10-30T21:40:57.267Z,36.92
2022-10-30T21:43:29.137Z,39.38
2022-10-30T21:48:29.146Z,39.25
2022-10-30T21:51:06.296Z,41.47
2022-10-30T21:53:36.637Z,39.42
2022-10-30T21:56:08.663Z,38.97
2022-10-30T21:58:40.709Z,35.95
2022-10-30T22:01:16.508Z,34.58
2022-10-30T22:03:47.078Z,35.85
2022-10-30T22:06:20.894Z,38.22
2022-10-30T22:08:53.156Z,41.85
2022-10-30T22:11:23.978Z,41.45
2022-10-30T22:13:57.531Z,40.00
2022-10-30T22:16:28.683Z,38.15
2022-10-30T22:18:59.456Z,33.58
2022-10-30T22:21:30.065Z,34.47
2022-10-30T22:24:01.878Z,38.50
2022-10-30T22:29:03.445Z,33.60
2022-10-30T22:34:04.288Z,31.58
2022-10-30T22:36:35.160Z,41.45
2022-10-30T22:39:07.714Z,32.70
2022-10-30T22:41:38.498Z,32.53
2022-10-30T22:44:13.412Z,34.35
2022-10-30T22:46:43.545Z,35.88
2022-10-30T22:49:13.991Z,36.50
2022-10-30T22:51:45.285Z,44.15
2022-10-30T22:56:45.325Z,33.50
2022-10-30T22:59:17.250Z,39.13
2022-10-30T23:01:47.226Z,35.80
2022-10-30T23:04:17.745Z,29.83
2022-10-30T23:06:47.577Z,37.03
2022-10-30T23:09:21.519Z,34.15
2022-10-30T23:11:51.476Z,33.78
2022-10-30T23:14:23.195Z,36.42
2022-10-30T23:16:53.257Z,30.77
2022-10-30T23:19:23.567Z,32.47
2022-10-30T23:21:56.346Z,36.47
2022-10-30T23:24:27.217Z,32.85
2022-10-30T23:26:57.330Z,33.40
2022-10-30T23:29:29.087Z,40.22
2022-10-30T23:34:29.236Z,35.95
2022-10-30T23:37:01.780Z,41.47
2022-10-30T23:39:32.487Z,32.13
2022-10-30T23:42:02.677Z,31.52
2022-10-30T23:44:34.836Z,35.13
2022-10-30T23:47:05.387Z,31.08
2022-10-30T23:49:35.737Z,36.03
2022-10-30T23:52:05.967Z,32.08
2022-10-30T23:54:36.178Z,28.73
2022-10-30T23:57:06.497Z,30.73
2022-10-30T23:59:38.235Z,30.58
